sensor_id;sensor_type;location;lat;lon;timestamp;pressure;altitude;pressure_sealevel;temperature;humidity
16580;BME280;8402;51.466;6.806;2022-12-05T00:01:35;101402.16;;;4.38;95.45
16580;BME280;8402;51.466;6.806;2022-12-05T00:04:06;101395.44;;;4.40;95.53
16580;BME280;8402;51.466;6.806;2022-12-05T00:06:35;101396.56;;;4.45;95.54
16580;BME280;8402;51.466;6.806;2022-12-05T00:09:04;101405.97;;;4.47;95.91
16580;BME280;8402;51.466;6.806;2022-12-05T00:11:35;101404.38;;;4.46;95.77
16580;BME280;8402;51.466;6.806;2022-12-05T00:14:06;101405.50;;;4.50;95.28
16580;BME280;8402;51.466;6.806;2022-12-05T00:16:36;101409.25;;;4.54;95.25
16580;BME280;8402;51.466;6.806;2022-12-05T00:19:06;101407.66;;;4.53;94.95
16580;BME280;8402;51.466;6.806;2022-12-05T00:21:35;101417.31;;;4.54;95.71
16580;BME280;8402;51.466;6.806;2022-12-05T00:24:05;101421.63;;;4.50;95.07
16580;BME280;8402;51.466;6.806;2022-12-05T00:26:34;101414.34;;;4.51;95.14
16580;BME280;8402;51.466;6.806;2022-12-05T00:29:03;101414.09;;;4.52;95.39
16580;BME280;8402;51.466;6.806;2022-12-05T00:31:32;101414.09;;;4.52;95.58
16580;BME280;8402;51.466;6.806;2022-12-05T00:34:01;101411.91;;;4.49;95.88
16580;BME280;8402;51.466;6.806;2022-12-05T00:36:31;101410.88;;;4.50;95.70
16580;BME280;8402;51.466;6.806;2022-12-05T00:39:02;101410.88;;;4.50;95.38
16580;BME280;8402;51.466;6.806;2022-12-05T00:41:30;101410.88;;;4.50;94.84
16580;BME280;8402;51.466;6.806;2022-12-05T00:43:59;101409.47;;;4.48;94.83
16580;BME280;8402;51.466;6.806;2022-12-05T00:46:29;101410.28;;;4.48;95.74
16580;BME280;8402;51.466;6.806;2022-12-05T00:49:00;101412.16;;;4.48;95.14
16580;BME280;8402;51.466;6.806;2022-12-05T00:51:30;101407.31;;;4.45;95.15
16580;BME280;8402;51.466;6.806;2022-12-05T00:53:59;101407.06;;;4.46;95.30
16580;BME280;8402;51.466;6.806;2022-12-05T00:56:29;101410.03;;;4.50;95.56
16580;BME280;8402;51.466;6.806;2022-12-05T00:58:58;101408.19;;;4.55;95.84
16580;BME280;8402;51.466;6.806;2022-12-05T01:01:29;101404.75;;;4.60;95.13
16580;BME280;8402;51.466;6.806;2022-12-05T01:04:03;101408.19;;;4.55;95.22
16580;BME280;8402;51.466;6.806;2022-12-05T01:06:31;101399.59;;;4.53;95.21
16580;BME280;8402;51.466;6.806;2022-12-05T01:09:00;101401.75;;;4.56;95.79
16580;BME280;8402;51.466;6.806;2022-12-05T01:11:28;101394.81;;;4.60;95.79
16580;BME280;8402;51.466;6.806;2022-12-05T01:13:58;101401.28;;;4.64;95.23
16580;BME280;8402;51.466;6.806;2022-12-05T01:16:28;101393.19;;;4.59;95.36
16580;BME280;8402;51.466;6.806;2022-12-05T01:18:57;101391.56;;;4.58;95.26
16580;BME280;8402;51.466;6.806;2022-12-05T01:21:27;101399.63;;;4.58;95.37
16580;BME280;8402;51.466;6.806;2022-12-05T01:23:55;101398.03;;;4.62;95.28
16580;BME280;8402;51.466;6.806;2022-12-05T01:26:23;101402.34;;;4.63;95.14
16580;BME280;8402;51.466;6.806;2022-12-05T01:28:51;101402.59;;;4.62;94.92
16580;BME280;8402;51.466;6.806;2022-12-05T01:31:22;101405.03;;;4.63;95.59
16580;BME280;8402;51.466;6.806;2022-12-05T01:33:51;101402.09;;;4.65;95.35
16580;BME280;8402;51.466;6.806;2022-12-05T01:36:20;101411.78;;;4.66;95.06
16580;BME280;8402;51.466;6.806;2022-12-05T01:38:50;101410.44;;;4.68;95.52
16580;BME280;8402;51.466;6.806;2022-12-05T01:41:19;101416.38;;;4.70;94.64
16580;BME280;8402;51.466;6.806;2022-12-05T01:43:59;101420.13;;;4.69;94.74
16580;BME280;8402;51.466;6.806;2022-12-05T01:46:29;101413.44;;;4.72;95.65
16580;BME280;8402;51.466;6.806;2022-12-05T01:49:02;101418.00;;;4.72;95.03
16580;BME280;8402;51.466;6.806;2022-12-05T01:51:31;101423.13;;;4.73;95.03
16580;BME280;8402;51.466;6.806;2022-12-05T01:54:02;101423.94;;;4.74;94.94
16580;BME280;8402;51.466;6.806;2022-12-05T01:56:31;101423.88;;;4.68;95.48
16580;BME280;8402;51.466;6.806;2022-12-05T01:59:00;101419.31;;;4.69;95.19
16580;BME280;8402;51.466;6.806;2022-12-05T02:01:29;101420.13;;;4.69;94.79
16580;BME280;8402;51.466;6.806;2022-12-05T02:03:58;101429.56;;;4.72;95.43
16580;BME280;8402;51.466;6.806;2022-12-05T02:06:27;101419.63;;;4.73;95.12
16580;BME280;8402;51.466;6.806;2022-12-05T02:08:55;101424.47;;;4.76;94.82
16580;BME280;8402;51.466;6.806;2022-12-05T02:11:26;101426.91;;;4.77;95.09
16580;BME280;8402;51.466;6.806;2022-12-05T02:14:14;101429.81;;;4.70;95.28
16580;BME280;8402;51.466;6.806;2022-12-05T02:16:52;101434.69;;;4.74;95.10
16580;BME280;8402;51.466;6.806;2022-12-05T02:19:44;101426.84;;;4.67;94.99
16580;BME280;8402;51.466;6.806;2022-12-05T02:22:37;101437.28;;;4.63;95.13
16580;BME280;8402;51.466;6.806;2022-12-05T02:25:33;101430.28;;;4.62;95.82
16580;BME280;8402;51.466;6.806;2022-12-05T02:28:23;101437.06;;;4.65;95.79
16580;BME280;8402;51.466;6.806;2022-12-05T02:31:01;101437.59;;;4.67;95.61
16580;BME280;8402;51.466;6.806;2022-12-05T02:33:35;101436.25;;;4.64;95.69
16580;BME280;8402;51.466;6.806;2022-12-05T02:36:08;101429.78;;;4.65;95.54
16580;BME280;8402;51.466;6.806;2022-12-05T02:38:44;101433.56;;;4.64;96.19
16580;BME280;8402;51.466;6.806;2022-12-05T02:41:18;101428.66;;;4.61;96.14
16580;BME280;8402;51.466;6.806;2022-12-05T02:43:52;101428.66;;;4.61;95.50
16580;BME280;8402;51.466;6.806;2022-12-05T02:46:26;101431.91;;;4.63;95.71
16580;BME280;8402;51.466;6.806;2022-12-05T02:48:58;101428.19;;;4.64;95.74
16580;BME280;8402;51.466;6.806;2022-12-05T02:51:30;101435.16;;;4.65;95.69
16580;BME280;8402;51.466;6.806;2022-12-05T02:54:03;101429.78;;;4.65;95.73
16580;BME280;8402;51.466;6.806;2022-12-05T02:56:33;101424.41;;;4.65;96.27
16580;BME280;8402;51.466;6.806;2022-12-05T02:59:02;101430.34;;;4.67;95.76
16580;BME280;8402;51.466;6.806;2022-12-05T03:01:31;101426.53;;;4.63;96.16
16580;BME280;8402;51.466;6.806;2022-12-05T03:04:04;101430.28;;;4.62;96.14
16580;BME280;8402;51.466;6.806;2022-12-05T03:06:35;101431.09;;;4.63;96.78
16580;BME280;8402;51.466;6.806;2022-12-05T03:09:08;101423.28;;;4.61;96.11
16580;BME280;8402;51.466;6.806;2022-12-05T03:11:41;101438.94;;;4.64;96.37
16580;BME280;8402;51.466;6.806;2022-12-05T03:14:20;101433.78;;;4.63;96.07
16580;BME280;8402;51.466;6.806;2022-12-05T03:16:52;101428.13;;;4.59;95.83
16580;BME280;8402;51.466;6.806;2022-12-05T03:19:25;101435.13;;;4.60;95.84
16580;BME280;8402;51.466;6.806;2022-12-05T03:21:57;101434.56;;;4.58;96.22
16580;BME280;8402;51.466;6.806;2022-12-05T03:24:29;101438.34;;;4.62;95.96
16580;BME280;8402;51.466;6.806;2022-12-05T03:27:06;101427.06;;;4.60;96.27
16580;BME280;8402;51.466;6.806;2022-12-05T03:29:39;101429.47;;;4.62;96.51
16580;BME280;8402;51.466;6.806;2022-12-05T03:32:18;101430.00;;;4.59;96.56
16580;BME280;8402;51.466;6.806;2022-12-05T03:34:57;101431.88;;;4.58;96.85
16580;BME280;8402;51.466;6.806;2022-12-05T03:37:38;101429.19;;;4.58;96.77
16580;BME280;8402;51.466;6.806;2022-12-05T03:40:13;101430.81;;;4.59;96.44
16580;BME280;8402;51.466;6.806;2022-12-05T03:42:49;101432.16;;;4.62;96.17
16580;BME280;8402;51.466;6.806;2022-12-05T03:45:26;101431.66;;;4.65;96.69
16580;BME280;8402;51.466;6.806;2022-12-05T03:48:01;101426.03;;;4.66;96.58
16580;BME280;8402;51.466;6.806;2022-12-05T03:50:31;101434.63;;;4.68;96.43
16580;BME280;8402;51.466;6.806;2022-12-05T03:53:04;101429.53;;;4.67;96.77
16580;BME280;8402;51.466;6.806;2022-12-05T03:55:48;101429.25;;;4.68;96.17
16580;BME280;8402;51.466;6.806;2022-12-05T03:58:21;101424.97;;;4.67;96.38
16580;BME280;8402;51.466;6.806;2022-12-05T04:00:53;101427.66;;;4.67;96.37
16580;BME280;8402;51.466;6.806;2022-12-05T04:03:29;101436.78;;;4.66;96.30
16580;BME280;8402;51.466;6.806;2022-12-05T04:06:09;101428.72;;;4.66;97.32
16580;BME280;8402;51.466;6.806;2022-12-05T04:08:42;101434.63;;;4.68;97.19
16580;BME280;8402;51.466;6.806;2022-12-05T04:11:13;101438.09;;;4.64;96.92
16580;BME280;8402;51.466;6.806;2022-12-05T04:13:45;101432.47;;;4.65;96.74
16580;BME280;8402;51.466;6.806;2022-12-05T04:16:18;101438.94;;;4.64;96.65
16580;BME280;8402;51.466;6.806;2022-12-05T04:19:08;101440.53;;;4.65;96.75
16580;BME280;8402;51.466;6.806;2022-12-05T04:21:41;101442.72;;;4.68;96.61
16580;BME280;8402;51.466;6.806;2022-12-05T04:24:14;101442.22;;;4.72;96.63
16580;BME280;8402;51.466;6.806;2022-12-05T04:27:08;101440.31;;;4.72;96.71
16580;BME280;8402;51.466;6.806;2022-12-05T04:29:43;101443.81;;;4.73;96.46
16580;BME280;8402;51.466;6.806;2022-12-05T04:32:12;101439.53;;;4.72;96.95
16580;BME280;8402;51.466;6.806;2022-12-05T04:34:48;101450.50;;;4.70;97.35
16580;BME280;8402;51.466;6.806;2022-12-05T04:37:22;101447.59;;;4.72;96.86
16580;BME280;8402;51.466;6.806;2022-12-05T04:39:55;101441.38;;;4.71;97.23
16580;BME280;8402;51.466;6.806;2022-12-05T04:42:27;101440.03;;;4.68;97.30
16580;BME280;8402;51.466;6.806;2022-12-05T04:45:01;101445.91;;;4.65;97.06
16580;BME280;8402;51.466;6.806;2022-12-05T04:47:31;101453.41;;;4.63;97.85
16580;BME280;8402;51.466;6.806;2022-12-05T04:50:06;101448.03;;;4.63;97.63
16580;BME280;8402;51.466;6.806;2022-12-05T04:52:35;101447.81;;;4.65;97.86
16580;BME280;8402;51.466;6.806;2022-12-05T04:55:07;101451.28;;;4.65;97.58
16580;BME280;8402;51.466;6.806;2022-12-05T04:57:41;101445.91;;;4.65;97.71
16580;BME280;8402;51.466;6.806;2022-12-05T05:00:10;101450.78;;;4.68;97.56
16580;BME280;8402;51.466;6.806;2022-12-05T05:02:42;101448.63;;;4.70;97.94
16580;BME280;8402;51.466;6.806;2022-12-05T05:05:15;101449.19;;;4.73;97.71
16580;BME280;8402;51.466;6.806;2022-12-05T05:07:46;101454.56;;;4.73;97.40
16580;BME280;8402;51.466;6.806;2022-12-05T05:10:19;101451.09;;;4.72;97.26
16580;BME280;8402;51.466;6.806;2022-12-05T05:12:49;101457.28;;;4.73;97.44
16580;BME280;8402;51.466;6.806;2022-12-05T05:15:18;101456.69;;;4.70;97.49
16580;BME280;8402;51.466;6.806;2022-12-05T05:17:46;101453.72;;;4.67;97.65
16580;BME280;8402;51.466;6.806;2022-12-05T05:20:15;101460.44;;;4.64;97.74
16580;BME280;8402;51.466;6.806;2022-12-05T05:22:54;101447.00;;;4.64;98.27
16580;BME280;8402;51.466;6.806;2022-12-05T05:25:23;101455.06;;;4.64;97.47
16580;BME280;8402;51.466;6.806;2022-12-05T05:27:53;101449.09;;;4.62;97.75
16580;BME280;8402;51.466;6.806;2022-12-05T05:30:22;101453.41;;;4.63;98.27
16580;BME280;8402;51.466;6.806;2022-12-05T05:32:51;101450.50;;;4.65;98.29
16580;BME280;8402;51.466;6.806;2022-12-05T05:35:21;101458.28;;;4.66;98.56
16580;BME280;8402;51.466;6.806;2022-12-05T05:37:49;101459.91;;;4.67;97.90
16580;BME280;8402;51.466;6.806;2022-12-05T05:40:17;101453.72;;;4.67;98.20
16580;BME280;8402;51.466;6.806;2022-12-05T05:42:47;101459.09;;;4.67;97.78
16580;BME280;8402;51.466;6.806;2022-12-05T05:45:16;101462.06;;;4.65;98.26
16580;BME280;8402;51.466;6.806;2022-12-05T05:47:46;101462.06;;;4.65;97.71
16580;BME280;8402;51.466;6.806;2022-12-05T05:50:15;101460.97;;;4.66;98.02
16580;BME280;8402;51.466;6.806;2022-12-05T05:52:48;101459.38;;;4.70;98.46
16580;BME280;8402;51.466;6.806;2022-12-05T05:55:16;101464.75;;;4.70;98.06
16580;BME280;8402;51.466;6.806;2022-12-05T05:57:44;101460.19;;;4.71;98.39
16580;BME280;8402;51.466;6.806;2022-12-05T06:00:14;101458.88;;;4.74;98.75
16580;BME280;8402;51.466;6.806;2022-12-05T06:02:42;101457.75;;;4.69;97.83
16580;BME280;8402;51.466;6.806;2022-12-05T06:05:10;101462.59;;;4.67;98.17
16580;BME280;8402;51.466;6.806;2022-12-05T06:07:38;101470.41;;;4.69;98.56
16580;BME280;8402;51.466;6.806;2022-12-05T06:10:08;101462.34;;;4.69;98.80
16580;BME280;8402;51.466;6.806;2022-12-05T06:12:36;101468.50;;;4.69;98.94
16580;BME280;8402;51.466;6.806;2022-12-05T06:15:06;101466.91;;;4.68;98.34
16580;BME280;8402;51.466;6.806;2022-12-05T06:17:34;101468.50;;;4.69;98.75
16580;BME280;8402;51.466;6.806;2022-12-05T06:20:02;101472.59;;;4.72;98.09
16580;BME280;8402;51.466;6.806;2022-12-05T06:22:31;101474.69;;;4.70;98.29
16580;BME280;8402;51.466;6.806;2022-12-05T06:24:58;101477.66;;;4.68;98.67
16580;BME280;8402;51.466;6.806;2022-12-05T06:27:30;101485.97;;;4.67;98.30
16580;BME280;8402;51.466;6.806;2022-12-05T06:29:58;101482.75;;;4.65;97.97
16580;BME280;8402;51.466;6.806;2022-12-05T06:32:27;101486.78;;;4.67;98.34
16580;BME280;8402;51.466;6.806;2022-12-05T06:34:55;101486.78;;;4.67;98.76
16580;BME280;8402;51.466;6.806;2022-12-05T06:37:23;101486.25;;;4.70;98.84
16580;BME280;8402;51.466;6.806;2022-12-05T06:39:51;101491.16;;;4.74;99.04
16580;BME280;8402;51.466;6.806;2022-12-05T06:42:19;101489.25;;;4.74;98.91
16580;BME280;8402;51.466;6.806;2022-12-05T06:44:49;101498.66;;;4.72;98.03
16580;BME280;8402;51.466;6.806;2022-12-05T06:47:17;101492.72;;;4.69;98.34
16580;BME280;8402;51.466;6.806;2022-12-05T06:49:45;101490.53;;;4.66;98.67
16580;BME280;8402;51.466;6.806;2022-12-05T06:52:13;101487.31;;;4.64;98.29
16580;BME280;8402;51.466;6.806;2022-12-05T06:54:41;101498.06;;;4.64;98.91
16580;BME280;8402;51.466;6.806;2022-12-05T06:57:09;101502.91;;;4.67;98.83
16580;BME280;8402;51.466;6.806;2022-12-05T06:59:37;101489.53;;;4.73;99.28
16580;BME280;8402;51.466;6.806;2022-12-05T07:02:07;101498.13;;;4.75;98.82
16580;BME280;8402;51.466;6.806;2022-12-05T07:04:34;101504.88;;;4.77;98.56
16580;BME280;8402;51.466;6.806;2022-12-05T07:07:03;101506.25;;;4.80;98.42
16580;BME280;8402;51.466;6.806;2022-12-05T07:09:31;101507.06;;;4.80;99.00
16580;BME280;8402;51.466;6.806;2022-12-05T07:12:16;101511.63;;;4.80;98.82
16580;BME280;8402;51.466;6.806;2022-12-05T07:14:44;101508.38;;;4.78;98.25
16580;BME280;8402;51.466;6.806;2022-12-05T07:17:16;101515.41;;;4.79;98.50
16580;BME280;8402;51.466;6.806;2022-12-05T07:19:46;101514.31;;;4.80;98.59
16580;BME280;8402;51.466;6.806;2022-12-05T07:22:15;101507.88;;;4.81;98.03
16580;BME280;8402;51.466;6.806;2022-12-05T07:24:43;101517.56;;;4.82;98.13
16580;BME280;8402;51.466;6.806;2022-12-05T07:27:12;101517.56;;;4.82;97.81
16580;BME280;8402;51.466;6.806;2022-12-05T07:29:40;101523.19;;;4.80;98.25
16580;BME280;8402;51.466;6.806;2022-12-05T07:32:08;101520.78;;;4.79;97.76
16580;BME280;8402;51.466;6.806;2022-12-05T07:34:37;101525.03;;;4.75;98.19
16580;BME280;8402;51.466;6.806;2022-12-05T07:37:05;101530.94;;;4.72;98.28
16580;BME280;8402;51.466;6.806;2022-12-05T07:39:34;101529.28;;;4.70;98.47
16580;BME280;8402;51.466;6.806;2022-12-05T07:42:02;101531.72;;;4.72;97.84
16580;BME280;8402;51.466;6.806;2022-12-05T07:44:30;101538.16;;;4.71;97.90
16580;BME280;8402;51.466;6.806;2022-12-05T07:46:58;101536.75;;;4.63;98.31
16580;BME280;8402;51.466;6.806;2022-12-05T07:49:26;101537.81;;;4.62;98.64
16580;BME280;8402;51.466;6.806;2022-12-05T07:51:55;101543.72;;;4.59;98.31
16580;BME280;8402;51.466;6.806;2022-12-05T07:54:23;101545.84;;;4.57;98.18
16580;BME280;8402;51.466;6.806;2022-12-05T07:56:51;101538.81;;;4.56;98.27
16580;BME280;8402;51.466;6.806;2022-12-05T07:59:19;101547.47;;;4.58;98.99
16580;BME280;8402;51.466;6.806;2022-12-05T08:01:47;101546.41;;;4.59;98.54
16580;BME280;8402;51.466;6.806;2022-12-05T08:04:15;101552.84;;;4.58;97.96
16580;BME280;8402;51.466;6.806;2022-12-05T08:06:43;101554.47;;;4.59;97.98
16580;BME280;8402;51.466;6.806;2022-12-05T08:09:12;101559.22;;;4.52;98.00
16580;BME280;8402;51.466;6.806;2022-12-05T08:11:40;101560.78;;;4.48;97.41
16580;BME280;8402;51.466;6.806;2022-12-05T08:14:13;101566.41;;;4.47;97.98
16580;BME280;8402;51.466;6.806;2022-12-05T08:16:41;101564.00;;;4.45;97.47
16580;BME280;8402;51.466;6.806;2022-12-05T08:19:12;101572.06;;;4.45;97.64
16580;BME280;8402;51.466;6.806;2022-12-05T08:21:42;101566.94;;;4.44;97.62
16580;BME280;8402;51.466;6.806;2022-12-05T08:24:10;101569.84;;;4.42;97.24
16580;BME280;8402;51.466;6.806;2022-12-05T08:26:40;101569.31;;;4.40;96.91
16580;BME280;8402;51.466;6.806;2022-12-05T08:29:09;101581.38;;;4.37;97.13
16580;BME280;8402;51.466;6.806;2022-12-05T08:31:41;101576.25;;;4.36;97.39
16580;BME280;8402;51.466;6.806;2022-12-05T08:34:10;101587.50;;;4.33;96.94
16580;BME280;8402;51.466;6.806;2022-12-05T08:36:39;101590.44;;;4.31;97.09
16580;BME280;8402;51.466;6.806;2022-12-05T08:39:10;101592.78;;;4.28;97.11
16580;BME280;8402;51.466;6.806;2022-12-05T08:41:42;101590.63;;;4.25;96.72
16580;BME280;8402;51.466;6.806;2022-12-05T08:44:10;101592.25;;;4.26;96.55
16580;BME280;8402;51.466;6.806;2022-12-05T08:46:43;101598.69;;;4.25;96.75
16580;BME280;8402;51.466;6.806;2022-12-05T08:49:11;101603.00;;;4.26;96.96
16580;BME280;8402;51.466;6.806;2022-12-05T08:51:40;101604.59;;;4.27;97.09
16580;BME280;8402;51.466;6.806;2022-12-05T08:54:08;101603.31;;;4.29;97.26
16580;BME280;8402;51.466;6.806;2022-12-05T08:56:36;101606.84;;;4.35;97.39
16580;BME280;8402;51.466;6.806;2022-12-05T08:59:06;101605.81;;;4.36;97.03
16580;BME280;8402;51.466;6.806;2022-12-05T09:01:35;101606.38;;;4.38;96.81
16580;BME280;8402;51.466;6.806;2022-12-05T09:04:05;101598.25;;;4.33;97.09
16580;BME280;8402;51.466;6.806;2022-12-05T09:06:34;101609.78;;;4.33;97.14
16580;BME280;8402;51.466;6.806;2022-12-05T09:09:05;101617.59;;;4.35;96.67
16580;BME280;8402;51.466;6.806;2022-12-05T09:11:35;101620.28;;;4.35;97.24
16580;BME280;8402;51.466;6.806;2022-12-05T09:14:03;101616.78;;;4.34;97.36
16580;BME280;8402;51.466;6.806;2022-12-05T09:16:35;101613.88;;;4.36;96.69
16580;BME280;8402;51.466;6.806;2022-12-05T09:19:08;101615.50;;;4.37;96.62
16580;BME280;8402;51.466;6.806;2022-12-05T09:21:37;101608.50;;;4.36;97.19
16580;BME280;8402;51.466;6.806;2022-12-05T09:24:06;101620.88;;;4.37;97.22
16580;BME280;8402;51.466;6.806;2022-12-05T09:26:34;101615.50;;;4.37;97.41
16580;BME280;8402;51.466;6.806;2022-12-05T09:29:02;101615.50;;;4.37;96.98
16580;BME280;8402;51.466;6.806;2022-12-05T09:31:30;101622.97;;;4.35;97.33
16580;BME280;8402;51.466;6.806;2022-12-05T09:33:59;101619.25;;;4.36;96.91
16580;BME280;8402;51.466;6.806;2022-12-05T09:36:29;101623.28;;;4.38;97.77
16580;BME280;8402;51.466;6.806;2022-12-05T09:38:59;101628.66;;;4.38;97.57
16580;BME280;8402;51.466;6.806;2022-12-05T09:44:51;101619.25;;;4.36;97.14
16580;BME280;8402;51.466;6.806;2022-12-05T09:47:32;101631.34;;;4.38;97.34
16580;BME280;8402;51.466;6.806;2022-12-05T09:50:12;101613.81;;;4.31;97.87
16580;BME280;8402;51.466;6.806;2022-12-05T09:52:49;101619.72;;;4.33;97.83
16580;BME280;8402;51.466;6.806;2022-12-05T09:55:20;101620.78;;;4.32;98.20
16580;BME280;8402;51.466;6.806;2022-12-05T09:57:53;101613.34;;;4.39;98.54
16580;BME280;8402;51.466;6.806;2022-12-05T10:00:23;101620.34;;;4.40;97.73
16580;BME280;8402;51.466;6.806;2022-12-05T10:02:59;101624.09;;;4.39;98.15
16580;BME280;8402;51.466;6.806;2022-12-05T10:05:37;101618.72;;;4.39;98.04
16580;BME280;8402;51.466;6.806;2022-12-05T10:08:15;101616.13;;;4.44;97.99
16580;BME280;8402;51.466;6.806;2022-12-05T10:10:54;101616.66;;;4.46;97.78
16580;BME280;8402;51.466;6.806;2022-12-05T10:13:33;101626.34;;;4.47;97.45
16580;BME280;8402;51.466;6.806;2022-12-05T10:16:09;101622.28;;;4.45;98.10
16580;BME280;8402;51.466;6.806;2022-12-05T10:18:39;101625.53;;;4.47;98.00
16580;BME280;8402;51.466;6.806;2022-12-05T10:21:15;101623.09;;;4.45;97.59
16580;BME280;8402;51.466;6.806;2022-12-05T10:23:53;101629.28;;;4.46;97.98
16580;BME280;8402;51.466;6.806;2022-12-05T10:26:27;101626.91;;;4.49;97.66
16580;BME280;8402;51.466;6.806;2022-12-05T10:29:00;101618.28;;;4.47;98.07
16580;BME280;8402;51.466;6.806;2022-12-05T10:31:33;101629.03;;;4.47;98.56
16580;BME280;8402;51.466;6.806;2022-12-05T10:34:10;101627.41;;;4.46;98.68
16580;BME280;8402;51.466;6.806;2022-12-05T10:36:51;101628.22;;;4.47;98.21
16580;BME280;8402;51.466;6.806;2022-12-05T10:39:21;101625.28;;;4.48;97.72
16580;BME280;8402;51.466;6.806;2022-12-05T10:41:49;101626.09;;;4.49;97.92
16580;BME280;8402;51.466;6.806;2022-12-05T10:44:17;101637.09;;;4.47;97.87
16580;BME280;8402;51.466;6.806;2022-12-05T10:46:46;101625.25;;;4.43;98.11
16580;BME280;8402;51.466;6.806;2022-12-05T10:49:15;101626.53;;;4.40;98.18
16580;BME280;8402;51.466;6.806;2022-12-05T10:51:45;101627.94;;;4.43;98.71
16580;BME280;8402;51.466;6.806;2022-12-05T10:54:16;101632.28;;;4.49;99.23
16580;BME280;8402;51.466;6.806;2022-12-05T10:56:47;101625.34;;;4.53;98.42
16580;BME280;8402;51.466;6.806;2022-12-05T10:59:17;101622.13;;;4.56;98.84
16580;BME280;8402;51.466;6.806;2022-12-05T11:01:48;101623.22;;;4.55;98.33
16580;BME280;8402;51.466;6.806;2022-12-05T11:04:24;101620.97;;;4.47;97.94
16580;BME280;8402;51.466;6.806;2022-12-05T11:06:56;101617.41;;;4.41;97.85
16580;BME280;8402;51.466;6.806;2022-12-05T11:09:27;101623.28;;;4.38;97.96
16580;BME280;8402;51.466;6.806;2022-12-05T11:12:04;101625.66;;;4.35;98.02
16580;BME280;8402;51.466;6.806;2022-12-05T11:14:33;101619.25;;;4.36;98.70
16580;BME280;8402;51.466;6.806;2022-12-05T11:17:04;101622.22;;;4.39;98.65
16580;BME280;8402;51.466;6.806;2022-12-05T11:19:33;101621.50;;;4.44;98.61
16580;BME280;8402;51.466;6.806;2022-12-05T11:22:04;101613.97;;;4.46;98.75
16580;BME280;8402;51.466;6.806;2022-12-05T11:24:35;101611.84;;;4.48;98.54
16580;BME280;8402;51.466;6.806;2022-12-05T11:27:19;101615.03;;;4.45;98.43
16580;BME280;8402;51.466;6.806;2022-12-05T11:29:56;101615.59;;;4.47;98.32
16580;BME280;8402;51.466;6.806;2022-12-05T11:32:26;101622.09;;;4.51;98.05
16580;BME280;8402;51.466;6.806;2022-12-05T11:35:00;101619.97;;;4.53;98.13
16580;BME280;8402;51.466;6.806;2022-12-05T11:37:34;101606.28;;;4.55;97.39
16580;BME280;8402;51.466;6.806;2022-12-05T11:40:13;101624.03;;;4.56;98.31
16580;BME280;8402;51.466;6.806;2022-12-05T11:42:54;101600.59;;;4.51;97.61
16580;BME280;8402;51.466;6.806;2022-12-05T11:45:41;101611.28;;;4.46;97.28
16580;BME280;8402;51.466;6.806;2022-12-05T11:48:34;101605.38;;;4.44;97.69
16580;BME280;8402;51.466;6.806;2022-12-05T11:51:19;101603.84;;;4.53;98.35
16580;BME280;8402;51.466;6.806;2022-12-05T11:54:03;101593.38;;;4.57;98.36
16580;BME280;8402;51.466;6.806;2022-12-05T11:56:41;101607.22;;;4.65;98.38
16580;BME280;8402;51.466;6.806;2022-12-05T11:59:29;101602.66;;;4.66;97.23
16580;BME280;8402;51.466;6.806;2022-12-05T12:02:11;101601.84;;;4.65;97.61
16580;BME280;8402;51.466;6.806;2022-12-05T12:04:48;101600.75;;;4.66;97.04
16580;BME280;8402;51.466;6.806;2022-12-05T12:07:24;101601.84;;;4.65;97.30
16580;BME280;8402;51.466;6.806;2022-12-05T12:10:06;101600.44;;;4.63;96.82
16580;BME280;8402;51.466;6.806;2022-12-05T12:12:47;101608.75;;;4.61;96.75
16580;BME280;8402;51.466;6.806;2022-12-05T12:15:33;101599.59;;;4.57;96.72
16580;BME280;8402;51.466;6.806;2022-12-05T12:18:11;101601.22;;;4.58;97.01
16580;BME280;8402;51.466;6.806;2022-12-05T12:20:50;101604.41;;;4.55;97.10
16580;BME280;8402;51.466;6.806;2022-12-05T12:23:38;101609.72;;;4.50;96.86
16580;BME280;8402;51.466;6.806;2022-12-05T12:26:12;101609.97;;;4.49;96.80
16580;BME280;8402;51.466;6.806;2022-12-05T12:28:45;101611.59;;;4.50;97.35
16580;BME280;8402;51.466;6.806;2022-12-05T12:31:38;101606.47;;;4.48;97.26
16580;BME280;8402;51.466;6.806;2022-12-05T12:34:31;101609.66;;;4.45;96.25
16580;BME280;8402;51.466;6.806;2022-12-05T12:37:12;101602.41;;;4.46;97.31
16580;BME280;8402;51.466;6.806;2022-12-05T12:39:47;101600.00;;;4.44;96.97
16580;BME280;8402;51.466;6.806;2022-12-05T12:42:23;101606.19;;;4.45;96.52
16580;BME280;8402;51.466;6.806;2022-12-05T12:45:26;101602.63;;;4.39;96.42
16580;BME280;8402;51.466;6.806;2022-12-05T12:48:08;101598.84;;;4.40;96.88
16580;BME280;8402;51.466;6.806;2022-12-05T12:50:41;101598.66;;;4.47;96.93
16580;BME280;8402;51.466;6.806;2022-12-05T12:53:28;101595.72;;;4.48;96.82
16580;BME280;8402;51.466;6.806;2022-12-05T12:56:03;101594.72;;;4.54;97.12
16580;BME280;8402;51.466;6.806;2022-12-05T12:58:45;101589.03;;;4.51;96.18
16580;BME280;8402;51.466;6.806;2022-12-05T13:01:23;101592.47;;;4.46;95.96
16580;BME280;8402;51.466;6.806;2022-12-05T13:03:56;101587.09;;;4.46;96.94
16580;BME280;8402;51.466;6.806;2022-12-05T13:06:31;101589.78;;;4.46;96.53
16580;BME280;8402;51.466;6.806;2022-12-05T13:09:04;101588.16;;;4.45;97.09
16580;BME280;8402;51.466;6.806;2022-12-05T13:11:37;101582.25;;;4.43;97.40
16580;BME280;8402;51.466;6.806;2022-12-05T13:14:11;101583.88;;;4.44;97.04
16580;BME280;8402;51.466;6.806;2022-12-05T13:16:42;101579.56;;;4.43;97.30
16580;BME280;8402;51.466;6.806;2022-12-05T13:19:27;101582.72;;;4.40;97.15
16580;BME280;8402;51.466;6.806;2022-12-05T13:21:56;101585.75;;;4.44;97.35
16580;BME280;8402;51.466;6.806;2022-12-05T13:24:26;101584.09;;;4.42;97.09
16580;BME280;8402;51.466;6.806;2022-12-05T13:26:58;101577.88;;;4.37;96.85
16580;BME280;8402;51.466;6.806;2022-12-05T13:29:32;101585.88;;;4.32;96.72
16580;BME280;8402;51.466;6.806;2022-12-05T13:32:02;101592.88;;;4.33;97.52
16580;BME280;8402;51.466;6.806;2022-12-05T13:34:44;101593.94;;;4.32;97.04
16580;BME280;8402;51.466;6.806;2022-12-05T13:37:24;101585.88;;;4.32;96.61
16580;BME280;8402;51.466;6.806;2022-12-05T13:40:25;101593.13;;;4.31;96.87
16580;BME280;8402;51.466;6.806;2022-12-05T13:43:13;101591.53;;;4.35;97.21